createdAt,value
2022-08-11T00:02:30.434Z,93.90
2022-08-11T00:05:05.349Z,94.10
2022-08-11T00:07:35.431Z,94.20
2022-08-11T00:10:03.762Z,94.30
2022-08-11T00:12:32.397Z,94.30
2022-08-11T00:15:02.292Z,94.60
2022-08-11T00:17:33.703Z,94.70
2022-08-11T00:20:12.232Z,94.60
2022-08-11T00:22:47.994Z,94.80
2022-08-11T00:25:18.144Z,94.90
2022-08-11T00:27:47.337Z,95.00
2022-08-11T00:30:16.917Z,95.10
2022-08-11T00:32:47.403Z,95.10
2022-08-11T00:35:50.820Z,95.20
2022-08-11T00:38:08.331Z,95.50
2022-08-11T00:40:43.686Z,95.40
2022-08-11T00:43:21.174Z,95.40
2022-08-11T00:46:09.328Z,95.50
2022-08-11T00:48:46.294Z,95.50
2022-08-11T00:51:25.370Z,95.90
2022-08-11T00:54:09.551Z,95.80
2022-08-11T00:57:35.997Z,95.50
2022-08-11T01:00:06.934Z,95.70
2022-08-11T01:02:48.183Z,95.10
2022-08-11T01:05:35.369Z,95.60
2022-08-11T01:08:35.711Z,95.50
2022-08-11T01:11:22.880Z,95.20
2022-08-11T01:14:34.067Z,95.00
2022-08-11T01:17:46.641Z,95.10
2022-08-11T01:20:49.782Z,95.70
2022-08-11T01:23:57.928Z,96.50
2022-08-11T01:27:19.325Z,96.80
2022-08-11T01:30:11.263Z,96.40
2022-08-11T01:33:28.426Z,95.80
2022-08-11T01:36:56.991Z,96.50
2022-08-11T01:40:13.394Z,96.50
2022-08-11T01:43:50.189Z,96.90
2022-08-11T01:46:25.942Z,97.10
2022-08-11T01:50:08.853Z,97.90
2022-08-11T01:52:12.937Z,97.50
2022-08-11T01:54:46.328Z,97.50
2022-08-11T01:57:30.287Z,97.80
2022-08-11T02:00:08.251Z,97.90
2022-08-11T02:02:54.035Z,97.70
2022-08-11T02:06:00.333Z,98.00
2022-08-11T02:08:50.468Z,98.10
2022-08-11T02:11:31.647Z,98.90
2022-08-11T02:14:14.342Z,98.70
2022-08-11T02:16:53.630Z,99.20
2022-08-11T02:19:52.435Z,99.40
2022-08-11T02:22:47.943Z,99.90
2022-08-11T02:25:28.486Z,99.90
2022-08-11T02:28:04.134Z,99.90
2022-08-11T02:30:37.922Z,99.90
2022-08-11T02:33:24.142Z,99.90
2022-08-11T02:36:04.590Z,99.90
2022-08-11T02:38:43.413Z,99.90
2022-08-11T02:41:35.234Z,99.90
2022-08-11T02:44:29.575Z,99.90
2022-08-11T02:47:05.428Z,99.90
2022-08-11T02:50:02.759Z,99.90
2022-08-11T02:52:43.355Z,99.90
2022-08-11T02:55:44.550Z,99.90
2022-08-11T02:58:35.527Z,99.90
2022-08-11T03:01:13.063Z,99.90
2022-08-11T03:03:52.216Z,99.90
2022-08-11T03:06:32.198Z,99.90
2022-08-11T03:09:07.389Z,99.90
2022-08-11T03:12:11.483Z,99.90
2022-08-11T03:15:06.921Z,99.90
2022-08-11T03:17:42.025Z,99.90
2022-08-11T03:20:37.996Z,99.90
2022-08-11T03:23:19.934Z,99.90
2022-08-11T03:25:52.676Z,99.90
2022-08-11T03:28:27.335Z,99.90
2022-08-11T03:31:11.356Z,99.90
2022-08-11T03:34:08.144Z,99.90
2022-08-11T03:37:16.030Z,99.90
2022-08-11T03:39:56.743Z,99.90
2022-08-11T03:42:33.328Z,99.90
2022-08-11T03:45:08.304Z,99.90
2022-08-11T03:47:52.291Z,99.90
2022-08-11T03:50:35.409Z,99.90
2022-08-11T03:53:14.706Z,99.90
2022-08-11T03:56:11.455Z,99.90
2022-08-11T03:59:07.505Z,99.90
2022-08-11T04:02:10.185Z,99.90
2022-08-11T04:05:25.291Z,99.90
2022-08-11T04:08:34.139Z,99.90
2022-08-11T04:11:41.983Z,99.90
2022-08-11T04:15:09.622Z,99.90
2022-08-11T04:17:57.685Z,99.90
2022-08-11T04:21:12.903Z,99.90
2022-08-11T04:24:37.066Z,99.90
2022-08-11T04:27:14.404Z,99.90
2022-08-11T04:30:04.893Z,99.90
2022-08-11T04:32:49.835Z,99.90
2022-08-11T04:35:33.809Z,99.90
2022-08-11T04:38:27.118Z,99.90
2022-08-11T04:41:21.805Z,99.90
2022-08-11T04:44:20.288Z,99.90
2022-08-11T04:47:08.966Z,99.90
2022-08-11T04:50:14.075Z,99.90
2022-08-11T04:53:40.528Z,99.90
2022-08-11T04:56:32.982Z,99.90
2022-08-11T04:59:46.728Z,99.90
2022-08-11T05:02:51.712Z,99.90
2022-08-11T05:05:34.253Z,99.90
2022-08-11T05:08:19.489Z,99.90
2022-08-11T05:11:03.995Z,99.90
2022-08-11T05:13:52.979Z,99.90
2022-08-11T05:16:46.245Z,99.90
2022-08-11T05:19:35.410Z,99.90
2022-08-11T05:22:24.565Z,99.90
2022-08-11T05:26:42.672Z,99.90
2022-08-11T05:28:27.542Z,99.90
2022-08-11T05:31:16.344Z,99.90
2022-08-11T05:34:06.572Z,99.90
2022-08-11T05:36:42.169Z,99.90
2022-08-11T05:39:36.895Z,99.90
2022-08-11T05:42:30.101Z,99.90
2022-08-11T05:45:20.050Z,99.90
2022-08-11T05:48:09.482Z,99.90
2022-08-11T05:50:56.026Z,99.90
2022-08-11T05:53:43.693Z,99.90
2022-08-11T05:56:17.554Z,99.90
2022-08-11T05:58:49.984Z,99.90
2022-08-11T06:01:24.589Z,99.90
2022-08-11T06:04:12.579Z,99.90
2022-08-11T06:06:47.322Z,99.90
2022-08-11T06:09:15.659Z,99.90
2022-08-11T06:11:45.106Z,99.90
2022-08-11T06:14:15.522Z,99.90
2022-08-11T06:16:44.563Z,99.90
2022-08-11T06:19:14.262Z,99.90
2022-08-11T06:21:47.387Z,99.90
2022-08-11T06:24:18.055Z,99.90
2022-08-11T06:27:11.145Z,99.90
2022-08-11T06:29:54.535Z,99.90
2022-08-11T06:32:25.887Z,99.90
2022-08-11T06:35:09.818Z,99.90
2022-08-11T06:37:48.581Z,99.90
2022-08-11T06:40:30.061Z,99.90
2022-08-11T06:43:02.194Z,99.90
2022-08-11T06:45:33.365Z,99.90
2022-08-11T06:48:03.024Z,99.90
2022-08-11T06:50:50.757Z,99.90
2022-08-11T06:53:20.903Z,99.90
2022-08-11T06:56:08.618Z,99.90
2022-08-11T06:58:57.091Z,99.90
2022-08-11T07:01:37.894Z,99.90
2022-08-11T07:04:09.195Z,99.90
2022-08-11T07:07:09.894Z,99.90
2022-08-11T07:10:23.772Z,99.90
2022-08-11T07:13:44.559Z,99.90
2022-08-11T07:16:12.334Z,99.90
2022-08-11T07:19:00.738Z,99.90
2022-08-11T07:22:00.988Z,99.90
2022-08-11T07:25:01.294Z,99.90
2022-08-11T07:27:53.879Z,99.90
2022-08-11T07:30:21.766Z,99.90
2022-08-11T07:32:52.961Z,99.90
2022-08-11T07:35:25.614Z,99.90
2022-08-11T07:38:02.136Z,99.90
2022-08-11T07:40:33.655Z,99.90
2022-08-11T07:43:02.094Z,99.90
2022-08-11T07:45:48.867Z,99.90
2022-08-11T07:48:35.331Z,99.90
2022-08-11T07:51:21.909Z,99.90
2022-08-11T07:53:58.288Z,99.90
2022-08-11T07:56:54.830Z,99.90
2022-08-11T07:59:59.974Z,99.90
2022-08-11T08:02:49.740Z,99.90
2022-08-11T08:05:37.154Z,99.70
2022-08-11T08:08:23.567Z,99.50
2022-08-11T08:11:09.694Z,99.60
2022-08-11T08:13:56.929Z,99.50
2022-08-11T08:16:42.917Z,99.00
2022-08-11T08:19:13.455Z,98.50
2022-08-11T08:21:42.178Z,98.40
2022-08-11T08:24:13.675Z,97.90
2022-08-11T08:27:00.945Z,97.30
2022-08-11T08:29:52.323Z,97.40
2022-08-11T08:32:21.723Z,96.00
2022-08-11T08:34:51.762Z,95.90
2022-08-11T08:37:46.154Z,95.80
2022-08-11T08:40:11.034Z,95.90
2022-08-11T08:42:45.293Z,95.40
2022-08-11T08:45:18.339Z,96.00
2022-08-11T08:47:53.054Z,96.00
2022-08-11T08:50:46.834Z,95.40
2022-08-11T08:53:17.222Z,94.60
2022-08-11T08:55:47.191Z,94.50
2022-08-11T08:58:16.778Z,95.00
2022-08-11T09:00:47.819Z,94.30
2022-08-11T09:03:39.943Z,94.30
2022-08-11T09:06:03.574Z,94.50
2022-08-11T09:08:33.656Z,93.40
2022-08-11T09:11:20.190Z,93.40
2022-08-11T09:14:04.941Z,93.10
2022-08-11T09:16:36.476Z,92.90
2022-08-11T09:19:05.432Z,93.30
2022-08-11T09:21:46.278Z,92.70
2022-08-11T09:24:35.690Z,92.70
2022-08-11T09:27:07.478Z,91.90
2022-08-11T09:29:36.368Z,91.70
2022-08-11T09:32:07.105Z,92.40
2022-08-11T09:34:37.249Z,91.20
2022-08-11T09:37:28.540Z,90.80
2022-08-11T09:40:33.716Z,91.70
2022-08-11T09:43:23.623Z,90.80
2022-08-11T09:45:53.249Z,90.90
2022-08-11T09:48:24.603Z,90.70
2022-08-11T09:50:58.416Z,90.50
2022-08-11T09:53:37.121Z,90.30
2022-08-11T09:56:21.068Z,89.70
2022-08-11T09:58:49.304Z,90.50
2022-08-11T10:01:27.556Z,87.30
2022-08-11T10:04:01.427Z,88.70
2022-08-11T10:06:54.093Z,89.80
2022-08-11T10:09:25.067Z,89.10
2022-08-11T10:11:57.873Z,86.30
2022-08-11T10:14:45.182Z,86.60
2022-08-11T10:17:15.959Z,85.40
2022-08-11T10:20:03.927Z,83.30
2022-08-11T10:22:50.660Z,84.50
2022-08-11T10:25:36.203Z,86.80
2022-08-11T10:28:28.982Z,85.60
2022-08-11T10:31:13.593Z,85.70
2022-08-11T10:33:59.942Z,85.40
2022-08-11T10:36:31.059Z,88.10
2022-08-11T10:39:00.340Z,87.30
2022-08-11T10:42:06.613Z,86.90
2022-08-11T10:44:39.409Z,84.60
2022-08-11T10:47:25.521Z,83.90
2022-08-11T10:50:08.620Z,82.50
2022-08-11T10:52:56.674Z,82.60
2022-08-11T10:55:42.712Z,82.20
2022-08-11T10:58:28.823Z,82.10
2022-08-11T11:00:58.799Z,82.40
2022-08-11T11:03:27.622Z,84.10
2022-08-11T11:06:12.912Z,80.30
2022-08-11T11:08:58.746Z,80.00
2022-08-11T11:11:51.634Z,80.00
2022-08-11T11:14:46.176Z,79.40
2022-08-11T11:17:39.746Z,79.20
2022-08-11T11:20:09.192Z,82.70
2022-08-11T11:23:02.597Z,78.70
2022-08-11T11:25:44.875Z,81.90
2022-08-11T11:28:35.345Z,82.30
2022-08-11T11:31:15.610Z,80.60
2022-08-11T11:34:12.607Z,80.80
2022-08-11T11:36:48.422Z,79.40
2022-08-11T11:39:19.923Z,79.20
2022-08-11T11:41:50.801Z,78.50
2022-08-11T11:44:19.291Z,78.60
2022-08-11T11:46:47.946Z,78.00
2022-08-11T11:49:18.597Z,79.80
2022-08-11T11:51:50.215Z,80.00
2022-08-11T11:54:20.137Z,79.70
2022-08-11T11:56:51.221Z,78.50
2022-08-11T11:59:36.589Z,79.40
2022-08-11T12:02:07.576Z,78.40
2022-08-11T12:04:42.975Z,78.20
2022-08-11T12:07:25.697Z,77.90
2022-08-11T12:09:54.007Z,77.10
2022-08-11T12:12:41.487Z,77.00
2022-08-11T12:15:10.287Z,77.40
2022-08-11T12:17:39.732Z,79.00
2022-08-11T12:20:31.592Z,74.60
2022-08-11T12:23:16.362Z,75.70
2022-08-11T12:26:26.248Z,75.30
2022-08-11T12:28:52.739Z,73.30
2022-08-11T12:31:26.075Z,77.00
2022-08-11T12:33:56.037Z,74.20
2022-08-11T12:36:24.329Z,75.00
2022-08-11T12:38:53.561Z,74.60
2022-08-11T12:41:55.039Z,73.20
2022-08-11T12:44:45.475Z,73.70
2022-08-11T12:47:17.438Z,72.70
2022-08-11T12:50:05.637Z,73.60
2022-08-11T12:52:44.677Z,75.40
2022-08-11T12:55:37.429Z,72.90
2022-08-11T12:58:18.145Z,72.00
2022-08-11T13:01:05.963Z,71.90
2022-08-11T13:03:58.811Z,72.00
2022-08-11T13:06:27.206Z,72.60
2022-08-11T13:09:01.056Z,72.30
2022-08-11T13:11:56.955Z,71.90
2022-08-11T13:14:26.721Z,74.10
2022-08-11T13:17:14.189Z,71.00
2022-08-11T13:19:48.872Z,72.40
2022-08-11T13:22:19.477Z,73.70
2022-08-11T13:24:48.872Z,72.30
2022-08-11T13:27:19.095Z,71.20
2022-08-11T13:29:48.663Z,71.90
2022-08-11T13:32:19.346Z,71.60
2022-08-11T13:34:48.188Z,71.10
2022-08-11T13:37:16.894Z,73.80
2022-08-11T13:39:47.313Z,70.90
2022-08-11T13:42:20.192Z,71.50
2022-08-11T13:44:48.758Z,71.40
2022-08-11T13:47:18.929Z,70.60
2022-08-11T13:49:47.898Z,72.20
2022-08-11T13:52:17.512Z,73.30
2022-08-11T13:54:53.375Z,71.00
2022-08-11T13:58:07.619Z,72.80
2022-08-11T14:00:13.334Z,70.00
2022-08-11T14:02:56.685Z,69.70
2022-08-11T14:05:28.454Z,69.30
2022-08-11T14:08:00.299Z,70.80
2022-08-11T14:10:30.416Z,70.00
2022-08-11T14:13:41.685Z,70.70
2022-08-11T14:16:21.375Z,70.20
2022-08-11T14:18:55.293Z,71.50
2022-08-11T14:21:42.806Z,72.00
2022-08-11T14:24:13.046Z,71.30
2022-08-11T14:26:43.582Z,70.80
2022-08-11T14:29:14.254Z,69.60
2022-08-11T14:31:46.292Z,68.50
2022-08-11T14:34:19.938Z,70.70
2022-08-11T14:36:52.545Z,69.00
2022-08-11T14:39:23.860Z,68.60
2022-08-11T14:42:17.711Z,69.70
2022-08-11T14:45:16.645Z,67.50
2022-08-11T14:47:49.841Z,68.00
2022-08-11T14:50:23.952Z,69.20
2022-08-11T14:52:55.110Z,68.10
2022-08-11T14:55:43.447Z,67.80
2022-08-11T14:58:15.526Z,67.60
2022-08-11T15:00:45.029Z,67.60
2022-08-11T15:03:14.180Z,68.60
2022-08-11T15:05:56.616Z,68.80
2022-08-11T15:08:42.417Z,67.20
2022-08-11T15:11:32.209Z,67.90
2022-08-11T15:14:00.907Z,68.00
2022-08-11T15:16:47.137Z,69.20
2022-08-11T15:19:16.607Z,68.60
2022-08-11T15:22:03.451Z,67.70
2022-08-11T15:24:31.316Z,69.40
2022-08-11T15:27:19.150Z,67.60
2022-08-11T15:30:02.722Z,67.30
2022-08-11T15:32:49.929Z,68.10
2022-08-11T15:35:39.159Z,67.20
2022-08-11T15:38:14.932Z,69.70
2022-08-11T15:41:01.113Z,66.90
2022-08-11T15:43:51.227Z,67.80
2022-08-11T15:46:24.293Z,69.70
2022-08-11T15:48:57.557Z,67.20
2022-08-11T15:51:31.841Z,68.30
2022-08-11T15:54:08.932Z,67.90
2022-08-11T15:56:40.751Z,67.60
2022-08-11T15:59:41.700Z,67.60
2022-08-11T16:02:31.772Z,66.70
2022-08-11T16:05:02.112Z,67.20
2022-08-11T16:07:37.707Z,66.50
2022-08-11T16:10:18.691Z,67.60
2022-08-11T16:13:21.262Z,66.50
2022-08-11T16:16:08.833Z,67.10
2022-08-11T16:18:42.299Z,66.40
2022-08-11T16:21:26.238Z,66.60
2022-08-11T16:24:05.641Z,67.40
2022-08-11T16:27:10.605Z,67.20
2022-08-11T16:29:28.069Z,67.50
2022-08-11T16:32:15.027Z,65.90
2022-08-11T16:35:02.335Z,66.30
2022-08-11T16:37:51.864Z,67.00
2022-08-11T16:40:22.630Z,66.00
2022-08-11T16:43:11.960Z,66.40
2022-08-11T16:45:59.183Z,66.10
2022-08-11T16:48:36.144Z,66.70
2022-08-11T16:51:06.364Z,65.90
2022-08-11T16:53:59.930Z,66.70
2022-08-11T16:56:25.975Z,66.50
2022-08-11T16:59:15.319Z,66.20
2022-08-11T17:01:53.810Z,66.50
2022-08-11T17:04:48.612Z,67.50
2022-08-11T17:07:42.365Z,66.30
2022-08-11T17:10:51.568Z,66.70
2022-08-11T17:13:26.607Z,66.00
2022-08-11T17:16:07.988Z,66.70
2022-08-11T17:18:43.184Z,66.80
2022-08-11T17:21:15.349Z,66.80
2022-08-11T17:23:49.772Z,66.40
2022-08-11T17:26:24.015Z,67.70
2022-08-11T17:28:57.595Z,67.00
2022-08-11T17:31:57.477Z,66.90
2022-08-11T17:34:43.352Z,66.90
2022-08-11T17:37:12.182Z,67.30
2022-08-11T17:39:40.962Z,67.20
2022-08-11T17:42:27.245Z,67.00
2022-08-11T17:45:13.610Z,67.30
2022-08-11T17:48:01.025Z,67.00
2022-08-11T17:50:29.501Z,66.80
2022-08-11T17:53:15.397Z,67.30
2022-08-11T17:56:01.404Z,67.70
2022-08-11T17:58:47.013Z,67.70
2022-08-11T18:01:16.646Z,67.50
2022-08-11T18:03:57.321Z,67.50
2022-08-11T18:06:34.069Z,67.60
2022-08-11T18:09:23.249Z,68.30
2022-08-11T18:12:12.804Z,68.00
2022-08-11T18:15:00.673Z,68.00
2022-08-11T18:17:46.157Z,68.80
2022-08-11T18:20:33.120Z,68.20
2022-08-11T18:23:40.550Z,68.10
2022-08-11T18:26:30.468Z,68.10
2022-08-11T18:29:16.452Z,68.50
2022-08-11T18:32:09.818Z,68.20
2022-08-11T18:34:59.683Z,68.40
2022-08-11T18:37:52.628Z,68.60
2022-08-11T18:40:42.561Z,68.80
2022-08-11T18:43:30.978Z,69.10
2022-08-11T18:46:19.963Z,69.20
2022-08-11T18:49:15.383Z,69.70
2022-08-11T18:52:05.387Z,69.80
2022-08-11T18:54:55.222Z,70.50
2022-08-11T18:57:49.765Z,70.80
2022-08-11T19:00:40.771Z,71.50
2022-08-11T19:03:28.627Z,72.90
2022-08-11T19:06:39.902Z,74.10
2022-08-11T19:09:27.065Z,74.80
2022-08-11T19:12:14.824Z,75.20
2022-08-11T19:15:01.276Z,75.70
2022-08-11T19:17:48.886Z,76.00
2022-08-11T19:20:37.998Z,76.10
2022-08-11T19:23:26.063Z,75.90
2022-08-11T19:26:12.104Z,76.30
2022-08-11T19:29:01.352Z,77.00
2022-08-11T19:31:48.447Z,77.80
2022-08-11T19:34:36.808Z,78.00
2022-08-11T19:37:25.051Z,77.90
2022-08-11T19:40:12.112Z,77.40
2022-08-11T19:42:58.821Z,77.90
2022-08-11T19:45:50.520Z,78.20
2022-08-11T19:48:40.489Z,78.10
2022-08-11T19:51:27.539Z,78.50
2022-08-11T19:54:13.712Z,78.00
2022-08-11T19:57:00.156Z,77.70
2022-08-11T19:59:46.176Z,77.70
2022-08-11T20:02:32.935Z,77.80
2022-08-11T20:05:18.943Z,77.20
2022-08-11T20:08:05.050Z,76.90
2022-08-11T20:10:52.061Z,76.90
2022-08-11T20:13:41.632Z,77.20
2022-08-11T20:16:29.476Z,77.30
2022-08-11T20:19:18.489Z,77.70
2022-08-11T20:22:08.289Z,77.60
2022-08-11T20:24:56.577Z,77.60
2022-08-11T20:27:43.331Z,77.20
2022-08-11T20:30:29.780Z,76.80
2022-08-11T20:33:15.812Z,77.90
2022-08-11T20:36:03.428Z,76.80
2022-08-11T20:38:52.106Z,77.20
2022-08-11T20:41:49.177Z,77.60
2022-08-11T20:44:45.846Z,76.70
2022-08-11T20:47:56.276Z,76.90
2022-08-11T20:50:41.118Z,77.20
2022-08-11T20:53:29.780Z,77.30
2022-08-11T20:56:18.227Z,76.50
2022-08-11T20:59:18.309Z,77.30
2022-08-11T21:02:05.276Z,77.00
2022-08-11T21:04:56.982Z,78.00
2022-08-11T21:07:56.778Z,79.00
2022-08-11T21:10:50.526Z,79.00
2022-08-11T21:13:39.086Z,78.40
2022-08-11T21:16:27.502Z,77.60
2022-08-11T21:19:19.234Z,78.10
2022-08-11T21:22:27.994Z,78.40
2022-08-11T21:25:17.305Z,78.20
2022-08-11T21:28:07.277Z,78.20
2022-08-11T21:30:57.799Z,78.30
2022-08-11T21:33:45.895Z,77.80
2022-08-11T21:36:33.131Z,78.10
2022-08-11T21:39:22.849Z,77.90
2022-08-11T21:42:11.206Z,78.40
2022-08-11T21:44:59.732Z,78.80
2022-08-11T21:47:45.825Z,78.40
2022-08-11T21:50:31.316Z,78.90
2022-08-11T21:53:17.923Z,79.40
2022-08-11T21:56:04.047Z,80.00
2022-08-11T21:58:49.617Z,80.10
2022-08-11T22:01:37.602Z,81.20
2022-08-11T22:04:24.217Z,81.80
2022-08-11T22:07:10.293Z,82.10
2022-08-11T22:09:55.857Z,80.90
2022-08-11T22:12:45.005Z,81.10
2022-08-11T22:15:31.062Z,81.10
2022-08-11T22:18:19.377Z,82.30
2022-08-11T22:21:05.037Z,82.20
2022-08-11T22:23:55.139Z,81.30
2022-08-11T22:26:41.882Z,81.80
2022-08-11T22:29:38.085Z,81.20
2022-08-11T22:32:36.347Z,81.80
2022-08-11T22:35:24.498Z,82.10
2022-08-11T22:38:16.063Z,82.20
2022-08-11T22:41:01.539Z,81.50
2022-08-11T22:43:47.595Z,81.40
2022-08-11T22:46:34.263Z,81.20
2022-08-11T22:49:21.249Z,81.00
2022-08-11T22:52:08.987Z,81.00
2022-08-11T22:54:55.441Z,81.10
2022-08-11T22:58:00.176Z,81.00
2022-08-11T23:00:47.342Z,81.60
2022-08-11T23:03:37.155Z,80.90
2022-08-11T23:06:24.282Z,80.80
2022-08-11T23:09:12.111Z,80.90
2022-08-11T23:12:07.906Z,80.80
2022-08-11T23:14:57.249Z,80.80
2022-08-11T23:17:43.938Z,80.80
2022-08-11T23:20:36.211Z,80.80
2022-08-11T23:23:34.210Z,80.70
2022-08-11T23:26:21.935Z,80.90
2022-08-11T23:29:07.525Z,80.80
2022-08-11T23:31:54.259Z,80.60
2022-08-11T23:35:04.113Z,80.40
2022-08-11T23:37:47.869Z,80.60
2022-08-11T23:40:33.383Z,80.70
2022-08-11T23:43:20.683Z,81.00
2022-08-11T23:46:06.235Z,80.60
2022-08-11T23:48:52.328Z,80.70
2022-08-11T23:51:40.629Z,80.50
2022-08-11T23:54:27.250Z,80.80
2022-08-11T23:57:13.950Z,80.80
